createdAt,value
2022-11-15T00:02:27.665Z,100.00
2022-11-15T00:07:55.494Z,100.00
2022-11-15T00:13:18.102Z,100.00
2022-11-15T00:18:39.706Z,100.00
2022-11-15T00:24:00.146Z,100.00
2022-11-15T00:29:22.562Z,100.00
2022-11-15T00:34:42.862Z,100.00
2022-11-15T00:40:04.893Z,100.00
2022-11-15T00:45:26.040Z,100.00
2022-11-15T00:50:46.444Z,100.00
2022-11-15T00:56:09.343Z,100.00
2022-11-15T01:01:29.499Z,100.00
2022-11-15T01:06:49.920Z,100.00
2022-11-15T01:12:10.284Z,100.00
2022-11-15T01:17:31.715Z,100.00
2022-11-15T01:22:54.279Z,100.00
2022-11-15T01:28:14.496Z,100.00
2022-11-15T01:33:38.257Z,100.00
2022-11-15T01:39:01.404Z,100.00
2022-11-15T01:44:50.848Z,100.00
2022-11-15T01:50:13.973Z,100.00
2022-11-15T01:55:34.491Z,100.00
2022-11-15T02:00:55.040Z,100.00
2022-11-15T02:06:15.546Z,100.00
2022-11-15T02:11:35.883Z,100.00
2022-11-15T02:17:03.230Z,100.00
2022-11-15T02:22:30.615Z,100.00
2022-11-15T02:28:35.447Z,100.00
2022-11-15T02:33:55.599Z,100.00
2022-11-15T02:39:36.942Z,100.00
2022-11-15T02:45:03.731Z,100.00
2022-11-15T02:50:27.746Z,100.00
2022-11-15T02:55:54.670Z,100.00
2022-11-15T03:01:23.068Z,100.00
2022-11-15T03:06:51.507Z,100.00
2022-11-15T03:12:24.483Z,100.00
2022-11-15T03:17:49.985Z,100.00
2022-11-15T03:23:11.580Z,100.00
2022-11-15T03:28:40.874Z,100.00
2022-11-15T03:34:10.097Z,100.00
2022-11-15T03:39:32.464Z,100.00
2022-11-15T03:45:03.687Z,100.00
2022-11-15T03:50:25.237Z,100.00
2022-11-15T03:55:45.714Z,100.00
2022-11-15T04:01:08.493Z,100.00
2022-11-15T04:06:28.633Z,100.00
2022-11-15T04:11:50.758Z,100.00
2022-11-15T04:17:11.075Z,100.00
2022-11-15T04:22:50.252Z,100.00
2022-11-15T04:28:10.587Z,100.00
2022-11-15T04:33:32.130Z,100.00
2022-11-15T04:38:55.030Z,100.00
2022-11-15T04:44:17.924Z,100.00
2022-11-15T04:49:38.644Z,100.00
2022-11-15T04:55:02.373Z,100.00
2022-11-15T05:00:26.884Z,100.00
2022-11-15T05:05:49.655Z,100.00
2022-11-15T05:11:18.022Z,100.00
2022-11-15T05:16:39.498Z,100.00
2022-11-15T05:21:59.598Z,100.00
2022-11-15T05:27:22.404Z,100.00
2022-11-15T05:32:42.620Z,100.00
2022-11-15T05:38:09.844Z,100.00
2022-11-15T05:43:32.291Z,100.00
2022-11-15T05:48:54.541Z,100.00
2022-11-15T05:54:17.221Z,100.00
2022-11-15T05:59:38.314Z,100.00
2022-11-15T06:04:58.732Z,100.00
2022-11-15T06:10:22.187Z,100.00
2022-11-15T06:15:42.397Z,100.00
2022-11-15T06:21:06.927Z,100.00
2022-11-15T06:26:27.239Z,100.00
2022-11-15T06:31:50.991Z,100.00
2022-11-15T06:37:11.590Z,100.00
2022-11-15T06:42:32.189Z,100.00
2022-11-15T06:47:55.951Z,100.00
2022-11-15T06:53:16.403Z,100.00
2022-11-15T06:58:41.832Z,100.00
2022-11-15T07:04:02.229Z,100.00
2022-11-15T07:09:28.917Z,100.00
2022-11-15T07:14:49.068Z,100.00
2022-11-15T07:20:10.241Z,100.00
2022-11-15T07:25:30.617Z,100.00
2022-11-15T07:30:51.053Z,100.00
2022-11-15T07:36:13.530Z,100.00
2022-11-15T07:41:34.710Z,100.00
2022-11-15T07:46:55.209Z,100.00
2022-11-15T07:52:15.597Z,100.00
2022-11-15T07:57:36.641Z,100.00
2022-11-15T08:03:14.066Z,100.00
2022-11-15T08:08:34.559Z,100.00
2022-11-15T08:13:54.768Z,100.00
2022-11-15T08:19:20.413Z,100.00
2022-11-15T08:24:40.785Z,100.00
2022-11-15T08:30:01.120Z,100.00
2022-11-15T08:35:24.921Z,100.00
2022-11-15T08:40:52.297Z,100.00
2022-11-15T08:46:13.952Z,100.00
2022-11-15T08:51:34.205Z,100.00
2022-11-15T08:56:59.583Z,100.00
2022-11-15T09:02:20.109Z,100.00
2022-11-15T09:07:40.640Z,100.00
2022-11-15T09:13:03.393Z,100.00
2022-11-15T09:18:25.160Z,100.00
2022-11-15T09:23:49.294Z,100.00
2022-11-15T09:29:12.034Z,100.00
2022-11-15T09:34:32.316Z,100.00
2022-11-15T09:39:55.161Z,100.00
2022-11-15T09:45:24.371Z,100.00
2022-11-15T09:50:49.663Z,100.00
2022-11-15T09:56:16.672Z,100.00
2022-11-15T10:01:43.814Z,100.00
2022-11-15T10:06:56.616Z,100.00
2022-11-15T10:12:00.776Z,100.00
2022-11-15T10:17:08.874Z,100.00
2022-11-15T10:22:31.660Z,100.00
2022-11-15T10:27:36.671Z,100.00
2022-11-15T10:32:40.598Z,100.00
2022-11-15T10:37:47.174Z,100.00
2022-11-15T10:42:50.258Z,100.00
2022-11-15T10:47:52.023Z,100.00
2022-11-15T10:52:56.418Z,100.00
2022-11-15T10:58:25.258Z,100.00
2022-11-15T11:03:40.855Z,100.00
2022-11-15T11:08:58.063Z,100.00
2022-11-15T11:14:13.476Z,100.00
2022-11-15T11:19:54.231Z,100.00
2022-11-15T11:25:19.618Z,100.00
2022-11-15T11:30:55.409Z,100.00
2022-11-15T11:36:27.791Z,100.00
2022-11-15T11:41:55.485Z,100.00
2022-11-15T11:47:01.762Z,100.00
2022-11-15T11:52:11.736Z,100.00
2022-11-15T11:57:25.462Z,100.00
2022-11-15T12:02:39.043Z,100.00
2022-11-15T12:07:46.094Z,100.00
2022-11-15T12:13:04.569Z,100.00
2022-11-15T12:18:10.128Z,100.00
2022-11-15T12:23:20.861Z,100.00
2022-11-15T12:28:34.946Z,100.00
2022-11-15T12:33:48.316Z,100.00
2022-11-15T12:38:55.740Z,100.00
2022-11-15T12:44:02.844Z,100.00
2022-11-15T12:49:31.686Z,100.00
2022-11-15T12:54:37.399Z,100.00
2022-11-15T13:00:02.502Z,100.00
2022-11-15T13:05:19.317Z,100.00
2022-11-15T13:10:28.179Z,100.00
2022-11-15T13:16:03.764Z,100.00
2022-11-15T13:21:39.069Z,100.00
2022-11-15T13:26:41.189Z,100.00
2022-11-15T13:31:44.536Z,100.00
2022-11-15T13:36:49.599Z,99.37
2022-11-15T13:41:55.584Z,99.75
2022-11-15T13:47:03.140Z,97.74
2022-11-15T13:52:14.955Z,96.50
2022-11-15T13:57:22.539Z,98.13
2022-11-15T14:02:31.412Z,96.98
2022-11-15T14:07:33.719Z,99.05
2022-11-15T14:12:36.520Z,100.00
2022-11-15T14:17:39.572Z,99.98
2022-11-15T14:22:52.552Z,100.00
2022-11-15T14:28:16.419Z,100.00
2022-11-15T14:33:31.214Z,100.00
2022-11-15T14:38:33.576Z,100.00
2022-11-15T14:43:37.400Z,100.00
2022-11-15T14:48:40.739Z,100.00
2022-11-15T14:53:44.574Z,100.00
2022-11-15T14:58:48.416Z,100.00
2022-11-15T15:03:52.647Z,100.00
2022-11-15T15:08:56.690Z,100.00
2022-11-15T15:14:01.437Z,100.00
2022-11-15T15:19:06.959Z,100.00
2022-11-15T15:24:19.047Z,100.00
2022-11-15T15:29:23.057Z,100.00
2022-11-15T15:34:24.789Z,100.00
2022-11-15T15:39:29.782Z,100.00
2022-11-15T15:44:32.596Z,100.00
2022-11-15T15:49:36.882Z,100.00
2022-11-15T15:54:44.516Z,100.00
2022-11-15T15:59:46.286Z,100.00
2022-11-15T16:04:50.439Z,100.00
2022-11-15T16:10:02.138Z,100.00
2022-11-15T16:15:05.976Z,100.00
2022-11-15T16:20:10.802Z,100.00
2022-11-15T16:25:13.291Z,100.00
2022-11-15T16:30:21.057Z,100.00
2022-11-15T16:35:25.660Z,100.00
2022-11-15T16:40:32.047Z,100.00
2022-11-15T16:45:36.567Z,100.00
2022-11-15T16:50:40.663Z,100.00
2022-11-15T16:55:43.510Z,100.00
2022-11-15T17:00:50.442Z,100.00
2022-11-15T17:05:52.724Z,100.00
2022-11-15T17:10:54.516Z,100.00
2022-11-15T17:16:07.616Z,100.00
2022-11-15T17:21:15.350Z,100.00
2022-11-15T17:26:40.251Z,100.00
2022-11-15T17:31:42.020Z,100.00
2022-11-15T17:36:45.454Z,100.00
2022-11-15T17:41:47.729Z,100.00
2022-11-15T17:46:51.687Z,100.00
2022-11-15T17:52:01.169Z,100.00
2022-11-15T17:57:08.322Z,100.00
2022-11-15T18:02:10.998Z,100.00
2022-11-15T18:07:14.305Z,100.00
2022-11-15T18:12:19.881Z,100.00
2022-11-15T18:17:23.116Z,100.00
2022-11-15T18:22:35.299Z,100.00
2022-11-15T18:27:38.246Z,100.00
2022-11-15T18:32:45.472Z,100.00
2022-11-15T18:37:49.427Z,100.00
2022-11-15T18:42:53.294Z,100.00
2022-11-15T18:47:55.019Z,100.00
2022-11-15T18:53:04.234Z,100.00
2022-11-15T18:58:10.758Z,100.00
2022-11-15T19:03:14.692Z,100.00
2022-11-15T19:08:17.085Z,100.00
2022-11-15T19:13:21.115Z,100.00
2022-11-15T19:18:31.777Z,100.00
2022-11-15T19:23:42.310Z,100.00
2022-11-15T19:28:44.765Z,100.00
2022-11-15T19:33:48.774Z,100.00
2022-11-15T19:38:50.628Z,100.00
2022-11-15T19:43:55.097Z,100.00
2022-11-15T19:48:56.835Z,100.00
2022-11-15T19:54:06.252Z,100.00
2022-11-15T19:59:11.884Z,100.00
2022-11-15T20:04:17.062Z,100.00
2022-11-15T20:09:21.168Z,100.00
2022-11-15T20:14:24.183Z,100.00
2022-11-15T20:19:28.380Z,100.00
2022-11-15T20:24:31.366Z,100.00
2022-11-15T20:29:34.215Z,100.00
2022-11-15T20:34:36.127Z,100.00
2022-11-15T20:39:40.900Z,100.00
2022-11-15T20:44:46.385Z,100.00
2022-11-15T20:49:55.868Z,100.00
2022-11-15T20:54:58.434Z,100.00
2022-11-15T21:00:05.371Z,100.00
2022-11-15T21:05:08.518Z,100.00
2022-11-15T21:10:30.142Z,100.00
2022-11-15T21:15:36.520Z,100.00
2022-11-15T21:20:38.279Z,100.00
2022-11-15T21:25:49.718Z,100.00
2022-11-15T21:30:58.448Z,100.00
2022-11-15T21:36:02.487Z,100.00
2022-11-15T21:41:07.017Z,100.00
2022-11-15T21:46:15.366Z,100.00
2022-11-15T21:51:17.012Z,100.00
2022-11-15T21:56:18.734Z,100.00
2022-11-15T22:01:41.498Z,100.00
2022-11-15T22:06:45.526Z,100.00
2022-11-15T22:11:51.957Z,100.00
2022-11-15T22:16:55.727Z,100.00
2022-11-15T22:22:04.636Z,100.00
2022-11-15T22:27:11.104Z,100.00
2022-11-15T22:32:12.849Z,100.00
2022-11-15T22:37:21.047Z,100.00
2022-11-15T22:42:25.427Z,100.00
2022-11-15T22:47:29.430Z,100.00
2022-11-15T22:52:31.193Z,100.00
2022-11-15T22:57:38.244Z,100.00
2022-11-15T23:02:42.305Z,100.00
2022-11-15T23:07:45.279Z,100.00
2022-11-15T23:13:05.996Z,100.00
2022-11-15T23:18:12.518Z,100.00
2022-11-15T23:23:14.381Z,100.00
2022-11-15T23:28:19.384Z,100.00
2022-11-15T23:33:39.797Z,100.00
2022-11-15T23:38:41.577Z,100.00
2022-11-15T23:43:45.452Z,100.00
2022-11-15T23:48:47.226Z,100.00
2022-11-15T23:53:50.140Z,100.00
2022-11-15T23:58:52.203Z,100.00
